Time;durP1;ratioP1;P1;durP2;ratioP2;P2;SDS_P1;SDS_P2;PMS_P1;PMS_P2;Temp;Humidity;BMP_temperature;BMP_pressure;BME280_temperature;BME280_humidity;BME280_pressure;Samples;Min_cycle;Max_cycle;Signal;HPM_P1;HPM_P2
2021/12/23 00:00:01;;;;;;;30.43;17.20;;;-1.30;99.90;;;;;;5144963;28;20208;-48
2021/12/23 00:02:32;;;;;;;33.97;17.30;;;-1.50;99.90;;;;;;5128715;28;20202;-49
2021/12/23 00:05:03;;;;;;;39.70;18.97;;;-1.50;99.90;;;;;;5149208;28;20442;-49
2021/12/23 00:07:33;;;;;;;41.43;18.30;;;-1.60;99.90;;;;;;5143217;28;20177;-49
2021/12/23 00:10:06;;;;;;;36.43;18.20;;;-1.60;99.90;;;;;;5155458;28;20239;-49
2021/12/23 00:12:40;;;;;;;32.37;18.27;;;-1.60;99.90;;;;;;5155927;28;20201;-49
2021/12/23 00:15:23;;;;;;;31.97;17.43;;;-1.70;99.90;;;;;;5149141;28;20709;-48
2021/12/23 00:23:27;;;;;;;33.10;17.37;;;-1.80;99.90;;;;;;5159946;28;20858;-50
2021/12/23 00:26:00;;;;;;;43.17;18.40;;;-1.90;99.90;;;;;;5163810;28;20455;-49
2021/12/23 00:28:32;;;;;;;29.40;17.80;;;-1.90;99.90;;;;;;5160060;28;20519;-48
2021/12/23 00:31:04;;;;;;;34.20;18.20;;;-2.00;99.90;;;;;;5162185;28;20462;-49
2021/12/23 00:33:36;;;;;;;33.17;17.93;;;-2.00;99.90;;;;;;5155074;28;20491;-49
2021/12/23 00:36:09;;;;;;;33.70;17.83;;;-2.00;99.90;;;;;;5153333;28;20465;-48
2021/12/23 00:38:44;;;;;;;33.60;16.73;;;-2.00;99.90;;;;;;5150472;28;20432;-48
2021/12/23 00:41:15;;;;;;;31.00;17.60;;;-2.10;99.90;;;;;;5152943;28;20875;-48
2021/12/23 00:43:47;;;;;;;39.47;18.17;;;-2.10;99.90;;;;;;5168200;28;20408;-49
2021/12/23 00:46:17;;;;;;;41.10;18.30;;;-2.10;99.90;;;;;;5145707;28;20522;-48
2021/12/23 00:48:48;;;;;;;33.63;18.30;;;-2.10;99.90;;;;;;5147897;28;20432;-49
2021/12/23 00:51:19;;;;;;;35.03;17.20;;;-2.10;99.90;;;;;;5148468;28;20209;-49
2021/12/23 00:53:52;;;;;;;34.10;17.47;;;-2.10;99.90;;;;;;5150874;28;20216;-47
2021/12/23 00:56:23;;;;;;;32.27;16.97;;;-2.20;99.90;;;;;;5166327;28;20484;-48
2021/12/23 00:58:53;;;;;;;32.00;17.70;;;-2.10;99.90;;;;;;5175128;28;20903;-48
2021/12/23 01:01:24;;;;;;;32.67;18.50;;;-2.20;99.90;;;;;;5164979;28;20259;-49
2021/12/23 01:03:56;;;;;;;36.73;18.57;;;-2.10;99.90;;;;;;5157935;28;20181;-47
2021/12/23 01:06:27;;;;;;;33.53;17.87;;;-2.20;99.90;;;;;;5157679;28;20173;-47
2021/12/23 01:08:57;;;;;;;32.37;17.50;;;-2.20;99.90;;;;;;5149171;28;20962;-47
2021/12/23 01:11:28;;;;;;;34.47;17.87;;;-2.20;99.90;;;;;;5166393;28;20208;-48
2021/12/23 01:14:02;;;;;;;31.13;18.07;;;-2.20;99.90;;;;;;5163434;28;20648;-47
2021/12/23 01:19:22;;;;;;;44.13;19.10;;;-2.20;99.90;;;;;;5167087;28;20439;-47
2021/12/23 01:21:53;;;;;;;33.73;17.17;;;-2.20;99.90;;;;;;5168824;28;20460;-48
2021/12/23 01:24:28;;;;;;;29.10;17.60;;;-2.20;99.90;;;;;;5151962;28;20195;-48
2021/12/23 01:26:59;;;;;;;31.00;18.73;;;-2.10;99.90;;;;;;5152428;28;20204;-47
2021/12/23 01:29:30;;;;;;;35.53;18.27;;;-2.20;99.90;;;;;;5150684;28;20423;-47
2021/12/23 01:32:03;;;;;;;43.17;18.23;;;-2.20;99.90;;;;;;5164891;28;20455;-48
2021/12/23 01:34:36;;;;;;;39.17;19.13;;;-2.20;99.90;;;;;;5151873;28;20267;-47
2021/12/23 01:37:06;;;;;;;27.90;16.53;;;-2.20;99.90;;;;;;5166699;28;20501;-48
2021/12/23 01:39:37;;;;;;;34.30;18.40;;;-2.30;99.90;;;;;;5150388;28;20423;-48
2021/12/23 01:42:07;;;;;;;37.67;18.83;;;-2.30;99.90;;;;;;5148233;28;20300;-49
2021/12/23 01:44:38;;;;;;;30.30;17.70;;;-2.40;99.90;;;;;;5168283;28;20228;-47
2021/12/23 01:47:08;;;;;;;37.33;19.87;;;-2.40;99.90;;;;;;5152240;28;20255;-49
2021/12/23 01:49:39;;;;;;;31.93;16.70;;;-2.30;99.90;;;;;;5163653;28;20194;-49
2021/12/23 01:52:10;;;;;;;38.27;19.47;;;-2.30;99.90;;;;;;5159219;28;20212;-47
2021/12/23 01:54:40;;;;;;;33.60;17.47;;;-2.30;99.90;;;;;;5138758;28;20182;-48
2021/12/23 01:57:12;;;;;;;32.13;19.10;;;-2.40;99.90;;;;;;5166052;28;20323;-48
2021/12/23 01:59:43;;;;;;;38.20;19.33;;;-2.40;99.90;;;;;;5152706;28;20206;-47
2021/12/23 02:02:13;;;;;;;37.80;19.80;;;-2.40;99.90;;;;;;5162203;28;20475;-47
2021/12/23 02:04:44;;;;;;;27.77;16.83;;;-2.40;99.90;;;;;;5163292;28;20247;-48
2021/12/23 02:07:15;;;;;;;35.00;17.97;;;-2.40;99.90;;;;;;5163603;28;20187;-49
2021/12/23 02:09:45;;;;;;;37.43;18.40;;;-2.40;99.90;;;;;;5162478;28;20173;-47
2021/12/23 02:12:17;;;;;;;37.60;16.87;;;-2.30;99.90;;;;;;5165203;28;20298;-48
2021/12/23 02:14:47;;;;;;;35.53;18.53;;;-2.30;99.90;;;;;;5164600;28;20179;-47
2021/12/23 02:17:18;;;;;;;36.43;17.80;;;-2.40;99.90;;;;;;5139749;28;20437;-49
2021/12/23 02:19:52;;;;;;;40.60;19.70;;;-2.40;99.90;;;;;;5153967;28;20255;-48
2021/12/23 02:22:23;;;;;;;25.93;17.13;;;-2.30;99.90;;;;;;5148319;28;20208;-48
2021/12/23 02:24:53;;;;;;;32.07;17.87;;;-2.30;99.90;;;;;;5163800;28;20502;-47
2021/12/23 02:27:24;;;;;;;31.27;18.57;;;-2.40;99.90;;;;;;5162625;28;20194;-47
2021/12/23 02:29:55;;;;;;;29.87;17.60;;;-2.40;99.90;;;;;;5164733;28;20192;-47
2021/12/23 02:32:25;;;;;;;27.67;16.93;;;-2.40;99.90;;;;;;5147611;28;20609;-49
2021/12/23 02:34:56;;;;;;;29.93;15.57;;;-2.40;99.90;;;;;;5158950;28;20195;-48
2021/12/23 02:37:26;;;;;;;29.00;17.90;;;-2.30;99.90;;;;;;5148934;28;20215;-48
2021/12/23 02:39:57;;;;;;;31.27;18.87;;;-2.40;99.90;;;;;;5166643;28;20558;-48
2021/12/23 02:42:27;;;;;;;33.50;18.17;;;-2.30;99.90;;;;;;5165525;28;20209;-48
2021/12/23 02:44:58;;;;;;;30.30;17.70;;;-2.20;99.90;;;;;;5164478;28;20178;-47
2021/12/23 02:47:28;;;;;;;35.63;18.30;;;-2.20;99.90;;;;;;5155840;28;20191;-48
2021/12/23 02:49:59;;;;;;;32.53;18.67;;;-2.20;99.90;;;;;;5163889;28;20243;-48
2021/12/23 02:52:30;;;;;;;31.97;16.80;;;-2.30;99.90;;;;;;5155456;28;20208;-48
2021/12/23 02:55:00;;;;;;;39.27;18.10;;;-2.30;99.90;;;;;;5158331;28;20192;-48
2021/12/23 02:57:32;;;;;;;31.20;18.23;;;-2.30;99.90;;;;;;5162548;28;20637;-48
2021/12/23 03:00:05;;;;;;;31.13;17.70;;;-2.30;99.90;;;;;;5168801;28;20296;-48
2021/12/23 03:02:41;;;;;;;31.83;18.50;;;-2.30;99.90;;;;;;5149392;28;20462;-48
2021/12/23 03:05:12;;;;;;;31.23;17.50;;;-2.30;99.90;;;;;;5148476;28;20427;-47
2021/12/23 03:07:42;;;;;;;30.97;17.47;;;-2.30;99.90;;;;;;5163300;28;20432;-48
2021/12/23 03:10:13;;;;;;;39.13;20.37;;;-2.30;99.90;;;;;;5158961;28;20195;-48
2021/12/23 03:12:43;;;;;;;30.83;17.43;;;-2.30;99.90;;;;;;5163817;28;20262;-48
2021/12/23 03:15:14;;;;;;;33.40;18.60;;;-2.30;99.90;;;;;;5159648;28;20189;-48
2021/12/23 03:17:45;;;;;;;34.07;19.37;;;-2.30;99.90;;;;;;5167840;28;20223;-48
2021/12/23 03:20:16;;;;;;;35.60;18.93;;;-2.30;99.90;;;;;;5158473;28;20201;-48
2021/12/23 03:22:46;;;;;;;31.60;17.20;;;-2.40;99.90;;;;;;5167705;28;20188;-49
2021/12/23 03:25:17;;;;;;;33.13;18.50;;;-2.30;99.90;;;;;;5165997;28;20431;-48
2021/12/23 03:27:47;;;;;;;33.23;19.27;;;-2.30;99.90;;;;;;5164653;28;20201;-48
2021/12/23 03:30:18;;;;;;;33.60;18.20;;;-2.30;99.90;;;;;;5136412;28;20185;-48
2021/12/23 03:32:48;;;;;;;31.70;18.63;;;-2.30;99.90;;;;;;5127331;28;20199;-48
2021/12/23 03:35:19;;;;;;;39.57;20.10;;;-2.30;99.90;;;;;;5163497;28;20188;-47
2021/12/23 03:37:49;;;;;;;42.23;21.33;;;-2.40;99.90;;;;;;5159048;28;20550;-47
2021/12/23 03:40:21;;;;;;;38.53;20.03;;;-2.30;99.90;;;;;;5162297;28;20685;-48
2021/12/23 03:42:52;;;;;;;39.10;18.27;;;-2.30;99.90;;;;;;5167233;28;20197;-48
2021/12/23 03:45:23;;;;;;;30.77;19.17;;;-2.20;99.90;;;;;;5159148;28;20907;-48
2021/12/23 03:47:53;;;;;;;33.50;18.77;;;-2.20;99.90;;;;;;5147399;28;20274;-48
2021/12/23 03:50:26;;;;;;;39.33;19.27;;;-2.30;99.90;;;;;;5157661;28;20533;-47
2021/12/23 03:52:57;;;;;;;35.43;19.10;;;-2.30;99.90;;;;;;5164063;28;20196;-48
2021/12/23 03:55:27;;;;;;;37.00;20.07;;;-2.30;99.90;;;;;;5164955;28;20617;-48
2021/12/23 03:57:58;;;;;;;36.70;20.50;;;-2.30;99.90;;;;;;5156762;28;20936;-47
2021/12/23 04:00:29;;;;;;;37.13;20.77;;;-2.30;99.90;;;;;;5133306;28;20236;-48
2021/12/23 04:03:00;;;;;;;37.23;20.07;;;-2.40;99.90;;;;;;5165774;28;20515;-48
2021/12/23 04:05:30;;;;;;;44.23;19.30;;;-2.40;99.90;;;;;;5169875;28;20195;-48
2021/12/23 04:08:01;;;;;;;36.90;20.40;;;-2.40;99.90;;;;;;5164182;28;20196;-48
2021/12/23 04:10:32;;;;;;;41.83;21.03;;;-2.50;99.90;;;;;;5172926;28;20231;-49
2021/12/23 04:13:03;;;;;;;39.00;19.17;;;-2.50;99.90;;;;;;5150986;28;20193;-49
2021/12/23 04:15:34;;;;;;;37.23;19.20;;;-2.50;99.90;;;;;;5159004;28;20184;-48
2021/12/23 04:18:05;;;;;;;43.93;20.87;;;-2.50;99.90;;;;;;5142603;28;20189;-48
2021/12/23 04:20:46;;;;;;;45.80;21.37;;;-2.50;99.90;;;;;;5161424;28;20250;-49
2021/12/23 04:23:16;;;;;;;43.00;21.93;;;-2.50;99.90;;;;;;5155032;28;20187;-48
2021/12/23 04:25:47;;;;;;;40.90;21.20;;;-2.40;99.90;;;;;;5166200;28;20815;-48
2021/12/23 04:28:18;;;;;;;38.17;19.00;;;-2.40;99.90;;;;;;5163453;28;20181;-48
2021/12/23 04:30:51;;;;;;;37.13;19.40;;;-2.40;99.90;;;;;;5150823;28;20232;-49
2021/12/23 04:33:21;;;;;;;41.40;22.20;;;-2.40;99.90;;;;;;5147836;28;20444;-48
2021/12/23 04:35:52;;;;;;;35.70;18.60;;;-2.40;99.90;;;;;;5150710;28;20560;-49
2021/12/23 04:38:22;;;;;;;40.93;20.93;;;-2.40;99.90;;;;;;5164117;28;20682;-49
2021/12/23 04:40:53;;;;;;;39.37;21.10;;;-2.40;99.90;;;;;;5157048;23;20249;-48
2021/12/23 04:43:23;;;;;;;44.07;24.27;;;-2.40;99.90;;;;;;5145393;28;20187;-48
2021/12/23 04:45:54;;;;;;;38.10;18.97;;;-2.40;99.90;;;;;;5148496;28;20735;-50
2021/12/23 04:48:25;;;;;;;39.77;20.23;;;-2.30;99.90;;;;;;5151774;28;20229;-48
2021/12/23 04:50:56;;;;;;;44.70;22.97;;;-2.30;99.90;;;;;;5143349;28;20566;-49
2021/12/23 04:53:27;;;;;;;49.73;21.63;;;-2.30;99.90;;;;;;5151977;28;20196;-49
2021/12/23 04:55:57;;;;;;;37.47;21.40;;;-2.20;99.90;;;;;;5165226;28;20419;-50
2021/12/23 04:58:28;;;;;;;39.13;20.77;;;-2.20;99.90;;;;;;5150747;28;20276;-50
2021/12/23 05:00:59;;;;;;;42.80;21.13;;;-2.30;99.90;;;;;;5162028;28;20278;-48
2021/12/23 05:03:29;;;;;;;46.60;24.10;;;-2.30;99.90;;;;;;5159318;28;20189;-48
2021/12/23 05:06:00;;;;;;;42.43;22.17;;;-2.20;99.90;;;;;;5143115;28;20186;-49
2021/12/23 05:08:31;;;;;;;40.13;22.43;;;-2.20;99.90;;;;;;5161034;28;20188;-49
2021/12/23 05:11:01;;;;;;;52.60;22.40;;;-2.20;99.90;;;;;;5145823;28;20201;-50
2021/12/23 05:13:32;;;;;;;41.67;21.33;;;-2.10;99.90;;;;;;5153576;28;20248;-49
2021/12/23 05:16:03;;;;;;;39.43;20.20;;;-2.10;99.90;;;;;;5146175;28;20598;-49
2021/12/23 05:18:33;;;;;;;38.83;21.83;;;-2.10;99.90;;;;;;5161762;28;20296;-49
2021/12/23 05:21:05;;;;;;;41.10;21.50;;;-2.10;99.90;;;;;;5148456;28;20208;-49
2021/12/23 05:23:36;;;;;;;42.30;22.73;;;-2.10;99.90;;;;;;5146678;28;20161;-49
2021/12/23 05:26:08;;;;;;;42.10;21.80;;;-2.10;99.90;;;;;;5149564;28;20430;-51
2021/12/23 05:28:38;;;;;;;39.00;21.83;;;-2.10;99.90;;;;;;5153862;28;20191;-49
2021/12/23 05:31:09;;;;;;;53.23;23.23;;;-2.10;99.90;;;;;;5148615;28;20448;-50
2021/12/23 05:33:39;;;;;;;44.00;22.97;;;-2.10;99.90;;;;;;5130938;28;20223;-50
2021/12/23 05:36:10;;;;;;;50.30;21.03;;;-2.00;99.90;;;;;;5154767;28;20636;-49
2021/12/23 05:38:40;;;;;;;42.50;21.70;;;-2.00;99.90;;;;;;5149231;28;20185;-48
2021/12/23 05:41:11;;;;;;;39.80;22.70;;;-2.00;99.90;;;;;;5164132;28;20575;-52
2021/12/23 05:43:41;;;;;;;50.33;21.43;;;-2.00;99.90;;;;;;5163303;28;20192;-48
2021/12/23 05:46:12;;;;;;;41.40;21.33;;;-1.90;99.90;;;;;;5162443;28;20197;-50
2021/12/23 05:48:43;;;;;;;38.37;21.93;;;-1.90;99.90;;;;;;5159728;28;20196;-49
2021/12/23 05:51:13;;;;;;;45.57;20.13;;;-2.00;99.90;;;;;;5164475;28;20239;-49
2021/12/23 05:53:44;;;;;;;39.23;19.93;;;-1.90;99.90;;;;;;5146596;28;20693;-50
2021/12/23 05:56:15;;;;;;;39.70;21.13;;;-1.90;99.90;;;;;;5160782;28;20235;-50
2021/12/23 05:58:46;;;;;;;40.07;19.90;;;-1.90;99.90;;;;;;5162017;28;20466;-49
2021/12/23 06:01:16;;;;;;;36.77;21.10;;;-2.00;99.90;;;;;;5165085;28;20228;-49
2021/12/23 06:03:47;;;;;;;44.23;19.90;;;-2.00;99.90;;;;;;5149895;28;20185;-49
2021/12/23 06:06:17;;;;;;;39.97;21.67;;;-1.90;99.90;;;;;;5166288;28;20207;-50
2021/12/23 06:08:48;;;;;;;48.00;22.63;;;-1.90;99.90;;;;;;5162699;28;20498;-50
2021/12/23 06:11:19;;;;;;;39.97;22.17;;;-1.80;99.90;;;;;;5128845;28;20209;-49
2021/12/23 06:13:49;;;;;;;42.37;21.50;;;-1.80;99.90;;;;;;5162715;28;20428;-49
2021/12/23 06:16:20;;;;;;;49.20;21.80;;;-1.80;99.90;;;;;;5149016;28;20192;-49
2021/12/23 06:18:50;;;;;;;45.50;22.10;;;-1.90;99.90;;;;;;5161455;28;20188;-49
2021/12/23 06:21:22;;;;;;;50.33;22.40;;;-1.90;99.90;;;;;;5164696;28;20244;-50
2021/12/23 06:23:53;;;;;;;37.70;21.33;;;-1.70;99.90;;;;;;5160172;28;20183;-49
2021/12/23 06:26:24;;;;;;;40.93;20.60;;;-1.80;99.90;;;;;;5148915;28;20434;-49
2021/12/23 06:28:54;;;;;;;40.70;21.87;;;-1.90;99.90;;;;;;5163882;28;20474;-51
2021/12/23 06:31:25;;;;;;;38.70;20.20;;;-1.80;99.90;;;;;;5154907;28;20211;-50
2021/12/23 06:33:56;;;;;;;41.30;20.23;;;-1.80;99.90;;;;;;5141429;28;20183;-49
2021/12/23 06:36:26;;;;;;;36.17;20.13;;;-1.80;99.90;;;;;;5158240;28;20439;-51
2021/12/23 06:38:57;;;;;;;44.00;22.40;;;-1.80;99.90;;;;;;5146154;28;20551;-49
2021/12/23 06:41:28;;;;;;;43.07;22.07;;;-1.80;99.90;;;;;;5153251;28;20215;-50
2021/12/23 06:43:58;;;;;;;37.70;20.40;;;-1.70;99.90;;;;;;5158610;28;20444;-51
2021/12/23 06:46:29;;;;;;;41.67;20.93;;;-1.70;99.90;;;;;;5142935;28;20182;-49
2021/12/23 06:49:00;;;;;;;32.33;19.53;;;-1.70;99.90;;;;;;5144749;28;20279;-49
2021/12/23 06:51:30;;;;;;;42.23;20.10;;;-1.70;99.90;;;;;;5135560;28;20209;-49
2021/12/23 06:54:02;;;;;;;41.47;20.90;;;-1.60;99.90;;;;;;5153469;28;20190;-51
2021/12/23 06:56:33;;;;;;;40.33;19.97;;;-1.60;99.90;;;;;;5159798;28;20196;-49
2021/12/23 06:59:03;;;;;;;41.73;21.27;;;-1.50;99.90;;;;;;5149983;28;20475;-49
2021/12/23 07:01:34;;;;;;;37.90;20.20;;;-1.60;99.90;;;;;;5156758;28;20209;-49
2021/12/23 07:04:14;;;;;;;38.13;20.23;;;-1.60;99.90;;;;;;5154951;28;20198;-50
2021/12/23 07:06:48;;;;;;;39.90;20.07;;;-1.60;99.90;;;;;;5153775;28;20273;-48
2021/12/23 07:09:18;;;;;;;37.73;19.40;;;-1.60;99.90;;;;;;5142575;28;20790;-50
2021/12/23 07:11:49;;;;;;;31.53;19.77;;;-1.60;99.90;;;;;;5140434;28;20518;-50
2021/12/23 07:14:19;;;;;;;36.53;18.77;;;-1.60;99.90;;;;;;5140525;28;20206;-49
2021/12/23 07:16:50;;;;;;;40.23;19.80;;;-1.60;99.90;;;;;;5154229;28;20186;-50
2021/12/23 07:19:21;;;;;;;39.87;19.43;;;-1.60;99.90;;;;;;5137646;28;20629;-49
2021/12/23 07:21:51;;;;;;;48.40;20.60;;;-1.60;99.90;;;;;;5139971;28;20217;-50
2021/12/23 07:24:22;;;;;;;49.60;20.43;;;-1.60;99.90;;;;;;5156750;28;20194;-50
2021/12/23 07:26:53;;;;;;;36.50;20.30;;;-1.60;99.90;;;;;;5144956;28;20177;-50
2021/12/23 07:29:24;;;;;;;36.80;20.40;;;-1.60;99.90;;;;;;5158177;28;20276;-49
2021/12/23 07:31:54;;;;;;;39.17;19.37;;;-1.60;99.90;;;;;;5144587;28;20594;-49
2021/12/23 07:34:25;;;;;;;29.70;17.93;;;-1.50;99.90;;;;;;5160453;28;20252;-49
2021/12/23 07:36:56;;;;;;;37.00;18.53;;;-1.50;99.90;;;;;;5145035;28;20181;-50
2021/12/23 07:39:26;;;;;;;28.40;17.10;;;-1.40;99.90;;;;;;5145416;28;20192;-51
2021/12/23 07:41:57;;;;;;;35.77;19.13;;;-1.30;99.90;;;;;;5159590;28;20240;-49
2021/12/23 07:44:28;;;;;;;38.83;18.90;;;-1.30;99.90;;;;;;5156001;28;20512;-51
2021/12/23 07:46:59;;;;;;;30.03;18.13;;;-1.30;99.90;;;;;;5141029;28;20543;-50
2021/12/23 07:49:29;;;;;;;35.23;19.23;;;-1.30;99.90;;;;;;5140218;28;20181;-49
2021/12/23 07:52:00;;;;;;;31.13;18.13;;;-1.30;99.90;;;;;;5159528;28;20467;-49
2021/12/23 07:54:30;;;;;;;37.30;19.20;;;-1.20;99.90;;;;;;5152345;28;20526;-49
2021/12/23 07:57:02;;;;;;;44.87;17.47;;;-1.10;99.90;;;;;;5157003;28;20196;-50
2021/12/23 07:59:32;;;;;;;35.60;19.00;;;-1.10;99.90;;;;;;5143293;28;20189;-51
2021/12/23 08:02:03;;;;;;;27.43;16.00;;;-1.10;99.90;;;;;;5153841;28;20878;-48
2021/12/23 08:04:35;;;;;;;39.30;18.70;;;-1.10;99.90;;;;;;5136345;28;20807;-49
2021/12/23 08:07:06;;;;;;;36.63;17.67;;;-1.20;99.90;;;;;;5152342;28;20272;-50
2021/12/23 08:09:36;;;;;;;32.13;18.90;;;-1.10;99.90;;;;;;5152350;28;20598;-51
2021/12/23 08:12:08;;;;;;;30.60;17.87;;;-1.10;99.90;;;;;;5155931;28;20225;-51
2021/12/23 08:14:38;;;;;;;45.93;17.60;;;-1.00;99.90;;;;;;5157346;28;20308;-51
2021/12/23 08:17:09;;;;;;;41.07;17.97;;;-1.00;99.90;;;;;;5136566;28;20531;-49
2021/12/23 08:19:40;;;;;;;31.27;15.57;;;-0.90;99.90;;;;;;5151808;28;20280;-49
2021/12/23 08:22:10;;;;;;;39.03;18.87;;;-1.00;99.90;;;;;;5148594;28;20716;-49
2021/12/23 08:24:41;;;;;;;34.13;18.00;;;-0.90;99.90;;;;;;5152952;28;20185;-49
2021/12/23 08:27:11;;;;;;;36.57;18.17;;;-0.90;99.90;;;;;;5155746;28;20208;-50
2021/12/23 08:29:42;;;;;;;31.10;19.10;;;-0.80;99.90;;;;;;5135797;28;22076;-50
2021/12/23 08:32:12;;;;;;;42.37;19.23;;;-0.90;99.90;;;;;;5153447;28;20287;-49
2021/12/23 08:34:43;;;;;;;41.53;19.53;;;-0.90;99.90;;;;;;5139185;28;20303;-50
2021/12/23 08:37:14;;;;;;;33.93;19.30;;;-0.90;99.90;;;;;;5138851;28;20677;-50
2021/12/23 08:39:47;;;;;;;37.43;18.47;;;-0.90;99.90;;;;;;5152388;28;20192;-49
2021/12/23 08:42:18;;;;;;;31.50;17.30;;;-0.90;99.90;;;;;;5159727;28;20275;-49
2021/12/23 08:44:48;;;;;;;37.33;19.50;;;-0.80;99.90;;;;;;5151148;28;20447;-52
2021/12/23 08:47:19;;;;;;;38.30;18.40;;;-0.90;99.90;;;;;;5157387;28;20254;-50
2021/12/23 08:49:50;;;;;;;30.40;18.00;;;-0.80;99.90;;;;;;5158514;28;20177;-50
2021/12/23 08:52:20;;;;;;;47.80;18.10;;;-0.90;99.90;;;;;;5151373;28;20266;-50
2021/12/23 08:54:51;;;;;;;36.47;18.93;;;-0.80;99.90;;;;;;5136272;28;20181;-51
2021/12/23 08:57:21;;;;;;;32.00;17.40;;;-0.70;99.90;;;;;;5157633;28;20221;-50
2021/12/23 08:59:52;;;;;;;36.73;18.10;;;-0.70;99.90;;;;;;5125800;28;20184;-51
2021/12/23 09:02:23;;;;;;;37.30;17.23;;;-0.70;99.90;;;;;;5160888;28;20198;-51
2021/12/23 09:04:53;;;;;;;29.70;15.93;;;-0.60;99.90;;;;;;5147793;28;20177;-49
2021/12/23 09:07:24;;;;;;;32.83;17.67;;;-0.60;99.90;;;;;;5162696;28;20181;-49
2021/12/23 09:09:55;;;;;;;31.33;17.87;;;-0.60;99.90;;;;;;5145594;28;20177;-50
2021/12/23 09:12:25;;;;;;;27.30;14.50;;;-0.60;99.90;;;;;;5146889;28;20233;-49
2021/12/23 09:14:56;;;;;;;29.10;16.70;;;-0.60;99.90;;;;;;5159198;28;20506;-49
2021/12/23 09:17:27;;;;;;;33.67;17.10;;;-0.60;99.90;;;;;;5159959;28;20223;-50
2021/12/23 09:19:57;;;;;;;28.73;16.50;;;-0.50;99.90;;;;;;5165404;28;20263;-49
2021/12/23 09:22:28;;;;;;;34.83;16.17;;;-0.50;99.90;;;;;;5144441;28;20228;-50
2021/12/23 09:25:04;;;;;;;29.50;17.30;;;-0.50;99.90;;;;;;5161542;28;20215;-50
2021/12/23 09:27:41;;;;;;;33.60;17.30;;;-0.40;99.90;;;;;;5163491;28;20228;-49
2021/12/23 09:33:02;;;;;;;35.20;17.20;;;-0.40;99.90;;;;;;5158089;28;20432;-50
2021/12/23 09:35:33;;;;;;;34.53;18.10;;;-0.30;99.90;;;;;;5161123;28;20436;-49
2021/12/23 09:38:03;;;;;;;37.43;19.40;;;-0.30;99.90;;;;;;5148092;28;20968;-50
2021/12/23 09:40:35;;;;;;;28.53;17.33;;;-0.10;99.90;;;;;;5144708;28;20495;-50
2021/12/23 09:43:09;;;;;;;33.83;17.40;;;0.00;99.90;;;;;;5161942;28;20260;-49
2021/12/23 09:45:42;;;;;;;34.83;16.57;;;0.00;99.90;;;;;;5162823;28;20939;-50
2021/12/23 09:48:15;;;;;;;38.17;18.17;;;-0.10;99.90;;;;;;5159773;28;20466;-50
2021/12/23 09:50:46;;;;;;;33.83;18.47;;;0.00;99.90;;;;;;5157770;28;20474;-50
2021/12/23 09:53:21;;;;;;;31.90;17.97;;;0.00;99.90;;;;;;5136697;28;20437;-51
2021/12/23 09:55:52;;;;;;;38.27;18.63;;;0.00;99.90;;;;;;5145133;28;20201;-50
2021/12/23 09:58:23;;;;;;;38.53;17.67;;;0.10;99.90;;;;;;5140692;28;20445;-51
2021/12/23 10:00:54;;;;;;;32.37;15.60;;;0.20;99.90;;;;;;5152597;28;20484;-49
2021/12/23 10:03:26;;;;;;;29.53;15.33;;;0.20;99.90;;;;;;5158734;28;20798;-49
2021/12/23 10:05:59;;;;;;;27.50;16.43;;;0.30;99.90;;;;;;5144361;28;20499;-50
2021/12/23 10:08:30;;;;;;;43.13;19.70;;;0.50;99.90;;;;;;5152523;28;20420;-50
2021/12/23 10:30:11;;;;;;;30.63;16.33;;;0.40;99.90;;;;;;5158729;28;20806;-50
2021/12/23 10:31:09;;;;;;;24.53;16.10;;;0.40;99.90;;;;;;5146213;28;20819;-50
2021/12/23 10:37:05;;;;;;;38.27;17.13;;;0.40;99.90;;;;;;5135910;28;20984;-50
2021/12/23 10:39:35;;;;;;;25.10;14.57;;;0.60;99.90;;;;;;5156118;28;21007;-49
2021/12/23 10:42:18;;;;;;;27.30;16.10;;;0.60;99.90;;;;;;5173830;23;20509;-52
2021/12/23 10:44:59;;;;;;;26.13;15.80;;;0.50;99.90;;;;;;5152629;28;20539;-51
2021/12/23 10:47:48;;;;;;;31.67;16.77;;;0.50;99.90;;;;;;5156714;28;20931;-51
2021/12/23 10:50:27;;;;;;;28.43;15.03;;;0.50;99.90;;;;;;5159297;28;20487;-51
2021/12/23 10:53:05;;;;;;;30.47;15.60;;;0.40;99.90;;;;;;5143000;28;20452;-52
2021/12/23 10:58:26;;;;;;;28.10;15.00;;;0.30;99.90;;;;;;5148543;28;20785;-50
2021/12/23 11:01:00;;;;;;;30.53;14.80;;;0.40;99.90;;;;;;5141166;28;20466;-52
2021/12/23 11:03:37;;;;;;;28.00;15.00;;;0.40;99.90;;;;;;5142899;28;20184;-50
2021/12/23 11:06:15;;;;;;;33.47;16.03;;;0.40;99.90;;;;;;5140389;28;20472;-53
2021/12/23 11:08:55;;;;;;;25.97;15.20;;;0.40;99.90;;;;;;5139949;28;20436;-52
2021/12/23 11:37:07;;;;;;;27.10;15.23;;;0.90;99.90;;;;;;5116278;28;20459;-51
2021/12/23 11:40:09;;;;;;;32.30;15.37;;;1.00;99.90;;;;;;5143230;28;20441;-51
2021/12/23 11:43:03;;;;;;;25.13;15.60;;;1.20;99.90;;;;;;5138008;28;20494;-52
2021/12/23 11:45:31;;;;;;;29.00;14.70;;;1.10;99.90;;;;;;5137843;28;20442;-51
2021/12/23 11:48:05;;;;;;;24.30;13.33;;;1.00;99.90;;;;;;5145380;28;20437;-50
2021/12/23 11:50:52;;;;;;;28.33;15.40;;;1.10;99.90;;;;;;5126498;28;20192;-52
2021/12/23 11:53:26;;;;;;;35.60;14.17;;;1.20;99.90;;;;;;5125773;28;20830;-52
2021/12/23 11:55:59;;;;;;;21.97;14.07;;;1.00;99.90;;;;;;5127590;28;20430;-50
2021/12/23 11:58:29;;;;;;;34.10;13.40;;;1.10;99.90;;;;;;5147054;28;21000;-51
2021/12/23 12:01:09;;;;;;;29.57;15.00;;;1.00;99.90;;;;;;5107821;28;20456;-51
2021/12/23 12:03:52;;;;;;;22.57;13.03;;;1.10;99.90;;;;;;5138384;28;20240;-51
2021/12/23 12:06:45;;;;;;;26.70;14.23;;;1.10;99.90;;;;;;5148197;28;20917;-52
2021/12/23 12:09:27;;;;;;;18.97;11.63;;;1.50;99.90;;;;;;5122876;28;20441;-51
2021/12/23 12:12:11;;;;;;;22.80;12.90;;;1.30;99.90;;;;;;5127977;28;20468;-52
2021/12/23 12:14:44;;;;;;;30.50;14.33;;;1.40;99.90;;;;;;5125053;28;20456;-52
2021/12/23 12:17:27;;;;;;;21.23;12.80;;;1.50;99.90;;;;;;5123845;28;20613;-52
2021/12/23 12:20:26;;;;;;;24.40;13.23;;;1.70;99.90;;;;;;5112030;28;20451;-51
2021/12/23 12:22:56;;;;;;;25.30;11.87;;;1.70;99.90;;;;;;5133863;28;20481;-52
2021/12/23 12:25:29;;;;;;;19.73;12.50;;;1.80;99.90;;;;;;5131609;28;20464;-50
2021/12/23 12:28:00;;;;;;;23.37;14.50;;;1.80;99.90;;;;;;5127902;28;20197;-51
2021/12/23 12:30:51;;;;;;;18.77;11.70;;;1.70;99.90;;;;;;5125230;28;20449;-52
2021/12/23 12:33:25;;;;;;;23.13;12.20;;;1.90;99.90;;;;;;5141643;28;20620;-51
2021/12/23 12:36:01;;;;;;;27.33;13.13;;;1.90;99.90;;;;;;5133798;28;20437;-52
2021/12/23 12:38:45;;;;;;;29.80;11.40;;;1.90;99.90;;;;;;5115386;28;20444;-52
2021/12/23 12:41:27;;;;;;;26.93;12.83;;;1.90;99.90;;;;;;5135386;28;20531;-51
2021/12/23 12:47:03;;;;;;;24.33;13.40;;;1.90;99.90;;;;;;5134524;28;20651;-52
2021/12/23 12:49:48;;;;;;;21.63;12.37;;;2.10;99.90;;;;;;5145260;28;20790;-52
2021/12/23 12:52:41;;;;;;;23.30;13.37;;;1.90;99.90;;;;;;5134110;28;20456;-51
2021/12/23 12:55:18;;;;;;;22.70;12.50;;;1.90;99.90;;;;;;5135477;28;20508;-51
2021/12/23 12:57:54;;;;;;;19.40;11.67;;;1.80;99.90;;;;;;5131207;28;20482;-51
2021/12/23 13:00:39;;;;;;;22.17;12.83;;;1.70;99.90;;;;;;5115725;28;20533;-51
2021/12/23 13:03:14;;;;;;;18.07;11.33;;;1.80;99.90;;;;;;5118666;28;20491;-50
2021/12/23 13:05:52;;;;;;;22.50;11.17;;;1.90;99.90;;;;;;5145067;28;21166;-51
2021/12/23 13:08:28;;;;;;;21.87;12.37;;;1.80;99.90;;;;;;5122918;28;20437;-50
2021/12/23 13:11:18;;;;;;;21.23;12.77;;;1.70;99.90;;;;;;5145351;28;20436;-52
2021/12/23 13:13:59;;;;;;;25.80;12.53;;;1.60;99.90;;;;;;5127512;28;20551;-52
2021/12/23 13:16:31;;;;;;;20.47;11.70;;;1.60;99.90;;;;;;5125425;28;20437;-52
2021/12/23 13:19:40;;;;;;;20.10;13.37;;;1.50;99.90;;;;;;5137899;28;20437;-50
2021/12/23 13:22:14;;;;;;;27.13;13.37;;;1.60;99.90;;;;;;5145606;28;21012;-51
2021/12/23 13:24:45;;;;;;;23.93;12.67;;;1.60;99.90;;;;;;5141159;28;20524;-51
2021/12/23 13:27:16;;;;;;;21.07;11.83;;;1.50;99.90;;;;;;5151335;28;20511;-52
2021/12/23 13:29:47;;;;;;;25.07;12.47;;;1.40;99.90;;;;;;5138657;28;20182;-52
2021/12/23 13:32:17;;;;;;;33.23;16.00;;;1.50;99.90;;;;;;5124924;28;20467;-50
2021/12/23 13:34:48;;;;;;;33.90;16.53;;;1.50;99.90;;;;;;5144580;28;20269;-51
2021/12/23 13:37:21;;;;;;;26.20;14.17;;;1.60;99.90;;;;;;5128625;28;20678;-52
2021/12/23 13:39:51;;;;;;;26.33;12.63;;;1.50;99.90;;;;;;5127181;28;20181;-51
2021/12/23 13:42:22;;;;;;;25.50;11.97;;;1.50;99.90;;;;;;5118076;28;20476;-52
2021/12/23 13:44:55;;;;;;;19.80;13.60;;;1.50;99.90;;;;;;5138757;28;20194;-51
2021/12/23 13:47:26;;;;;;;21.37;13.77;;;1.40;99.90;;;;;;5139221;28;20209;-51
2021/12/23 13:49:58;;;;;;;19.83;13.27;;;1.40;99.90;;;;;;5142297;28;20516;-51
2021/12/23 13:52:35;;;;;;;22.00;13.40;;;1.50;99.90;;;;;;5140496;28;20465;-51
2021/12/23 13:55:14;;;;;;;28.10;13.43;;;1.50;99.90;;;;;;5138880;28;20471;-51
2021/12/23 13:57:55;;;;;;;23.93;11.87;;;1.40;99.90;;;;;;5144416;28;20444;-52
2021/12/23 14:00:31;;;;;;;18.93;12.83;;;1.50;99.90;;;;;;5131932;28;20523;-51